sensor_id;sensor_type;location;lat;lon;timestamp;pressure;altitude;pressure_sealevel;temperature;humidity
57894;BME280;43710;47.460;19.034;2023-02-22T05:02:04;100525.19;;;10.89;73.50
57894;BME280;43710;47.460;19.034;2023-02-22T05:05:06;100525.19;;;10.89;73.50
57894;BME280;43710;47.460;19.034;2023-02-22T05:08:09;100541.75;;;10.56;78.59
57894;BME280;43710;47.460;19.034;2023-02-22T05:11:11;100535.50;;;10.71;73.13
57894;BME280;43710;47.460;19.034;2023-02-22T05:14:13;100533.31;;;10.78;73.35
57894;BME280;43710;47.460;19.034;2023-02-22T05:17:16;100538.34;;;10.90;72.30
57894;BME280;43710;47.460;19.034;2023-02-22T05:20:30;100532.94;;;10.95;73.29
57894;BME280;43710;47.460;19.034;2023-02-22T05:23:33;100537.50;;;11.00;71.44
57894;BME280;43710;47.460;19.034;2023-02-22T05:26:35;100537.97;;;11.07;71.76
57894;BME280;43710;47.460;19.034;2023-02-22T05:29:37;100543.34;;;11.02;70.96
57894;BME280;43710;47.460;19.034;2023-02-22T05:32:39;100541.13;;;11.14;72.40
57894;BME280;43710;47.460;19.034;2023-02-22T05:35:42;100536.56;;;11.15;73.45
57894;BME280;43710;47.460;19.034;2023-02-22T05:38:44;100544.41;;;11.06;71.12
57894;BME280;43710;47.460;19.034;2023-02-22T05:41:46;100544.63;;;11.15;71.10
57894;BME280;43710;47.460;19.034;2023-02-22T05:44:49;100552.59;;;11.25;79.76
57894;BME280;43710;47.460;19.034;2023-02-22T05:47:52;100559.81;;;11.29;88.07
57894;BME280;43710;47.460;19.034;2023-02-22T05:50:54;100556.03;;;11.31;70.41
57894;BME280;43710;47.460;19.034;2023-02-22T05:53:57;100562.97;;;11.37;83.68
57894;BME280;43710;47.460;19.034;2023-02-22T05:56:59;100558.69;;;11.36;85.79
57894;BME280;43710;47.460;19.034;2023-02-22T06:00:03;100569.47;;;11.25;72.53
57894;BME280;43710;47.460;19.034;2023-02-22T06:03:14;100583.28;;;11.09;81.33
57894;BME280;43710;47.460;19.034;2023-02-22T06:06:18;100582.25;;;11.04;73.07
57894;BME280;43710;47.460;19.034;2023-02-22T06:09:23;100589.75;;;11.02;72.40
57894;BME280;43710;47.460;19.034;2023-02-22T06:12:26;100591.66;;;11.02;71.62
57894;BME280;43710;47.460;19.034;2023-02-22T06:15:28;100591.06;;;11.10;77.33
57894;BME280;43710;47.460;19.034;2023-02-22T06:18:31;100587.97;;;10.93;79.07
57894;BME280;43710;47.460;19.034;2023-02-22T06:21:33;100593.53;;;11.01;75.77
57894;BME280;43710;47.460;19.034;2023-02-22T06:24:37;100597.06;;;10.97;78.76
57894;BME280;43710;47.460;19.034;2023-02-22T06:27:40;100609.31;;;11.08;80.29
57894;BME280;43710;47.460;19.034;2023-02-22T06:30:42;100604.41;;;11.20;83.16
57894;BME280;43710;47.460;19.034;2023-02-22T06:33:45;100607.03;;;11.31;75.04
57894;BME280;43710;47.460;19.034;2023-02-22T06:36:48;100605.44;;;11.29;81.43
57894;BME280;43710;47.460;19.034;2023-02-22T06:39:50;100603.94;;;11.47;72.29
57894;BME280;43710;47.460;19.034;2023-02-22T06:42:52;100603.28;;;11.66;73.44
57894;BME280;43710;47.460;19.034;2023-02-22T06:45:55;100609.13;;;11.73;75.45
57894;BME280;43710;47.460;19.034;2023-02-22T06:48:57;100611.47;;;11.80;69.24
57894;BME280;43710;47.460;19.034;2023-02-22T06:52:02;100620.28;;;11.90;68.94
57894;BME280;43710;47.460;19.034;2023-02-22T06:55:05;100616.78;;;11.90;71.22
57894;BME280;43710;47.460;19.034;2023-02-22T06:58:07;100625.28;;;12.02;70.39
57894;BME280;43710;47.460;19.034;2023-02-22T07:01:09;100612.47;;;12.18;76.53
57894;BME280;43710;47.460;19.034;2023-02-22T07:04:12;100605.69;;;12.26;68.90
57894;BME280;43710;47.460;19.034;2023-02-22T07:07:15;100613.19;;;12.29;69.91
57894;BME280;43710;47.460;19.034;2023-02-22T07:10:22;100611.81;;;12.55;72.85
57894;BME280;43710;47.460;19.034;2023-02-22T07:13:24;100611.59;;;12.52;67.05
57894;BME280;43710;47.460;19.034;2023-02-22T07:16:26;100613.53;;;12.46;68.49
57894;BME280;43710;47.460;19.034;2023-02-22T07:19:29;100608.06;;;12.51;68.29
57894;BME280;43710;47.460;19.034;2023-02-22T07:22:31;100610.19;;;12.54;66.23
57894;BME280;43710;47.460;19.034;2023-02-22T07:25:34;100613.00;;;12.44;67.42
57894;BME280;43710;47.460;19.034;2023-02-22T07:28:36;100616.09;;;12.56;73.01
57894;BME280;43710;47.460;19.034;2023-02-22T07:31:39;100618.22;;;12.35;67.62
57894;BME280;43710;47.460;19.034;2023-02-22T07:34:41;100611.75;;;12.36;67.58
57894;BME280;43710;47.460;19.034;2023-02-22T07:37:44;100611.75;;;12.36;70.28
57894;BME280;43710;47.460;19.034;2023-02-22T07:40:46;100613.00;;;12.44;76.92
57894;BME280;43710;47.460;19.034;2023-02-22T07:43:49;100615.97;;;12.42;74.06
57894;BME280;43710;47.460;19.034;2023-02-22T07:46:51;100617.69;;;12.33;74.47
57894;BME280;43710;47.460;19.034;2023-02-22T07:49:54;100624.06;;;12.42;69.86
57894;BME280;43710;47.460;19.034;2023-02-22T07:52:59;100620.34;;;12.38;70.35
57894;BME280;43710;47.460;19.034;2023-02-22T07:56:03;100615.31;;;12.32;67.63
57894;BME280;43710;47.460;19.034;2023-02-22T07:59:06;100618.50;;;12.34;68.36
57894;BME280;43710;47.460;19.034;2023-02-22T08:02:14;100626.75;;;12.42;67.10
57894;BME280;43710;47.460;19.034;2023-02-22T08:05:20;100621.69;;;12.36;67.65
57894;BME280;43710;47.460;19.034;2023-02-22T08:08:23;100624.41;;;12.36;68.34
57894;BME280;43710;47.460;19.034;2023-02-22T08:11:25;100624.53;;;12.44;67.65
57894;BME280;43710;47.460;19.034;2023-02-22T08:14:28;100623.25;;;12.42;67.47
57894;BME280;43710;47.460;19.034;2023-02-22T08:17:31;100619.47;;;12.43;67.09
57894;BME280;43710;47.460;19.034;2023-02-22T08:20:34;100617.81;;;12.47;67.42
57894;BME280;43710;47.460;19.034;2023-02-22T08:23:37;100620.50;;;12.47;67.41
57894;BME280;43710;47.460;19.034;2023-02-22T08:26:44;100620.09;;;12.59;73.83
57894;BME280;43710;47.460;19.034;2023-02-22T08:29:47;100620.53;;;12.66;68.64
57894;BME280;43710;47.460;19.034;2023-02-22T08:32:49;100627.13;;;12.79;69.18
57894;BME280;43710;47.460;19.034;2023-02-22T08:35:52;100616.84;;;12.81;70.24
57894;BME280;43710;47.460;19.034;2023-02-22T08:38:54;100616.06;;;12.99;68.75
57894;BME280;43710;47.460;19.034;2023-02-22T08:41:57;100622.16;;;13.29;68.49
57894;BME280;43710;47.460;19.034;2023-02-22T08:44:59;100618.88;;;13.32;74.58
57894;BME280;43710;47.460;19.034;2023-02-22T08:48:01;100620.97;;;13.35;67.05
57894;BME280;43710;47.460;19.034;2023-02-22T08:51:04;100623.53;;;13.45;76.27
57894;BME280;43710;47.460;19.034;2023-02-22T08:54:07;100622.19;;;13.61;75.17
57894;BME280;43710;47.460;19.034;2023-02-22T08:57:09;100626.16;;;13.97;84.47
57894;BME280;43710;47.460;19.034;2023-02-22T09:00:12;100621.41;;;14.07;69.37
57894;BME280;43710;47.460;19.034;2023-02-22T09:03:14;100621.91;;;14.23;67.71
57894;BME280;43710;47.460;19.034;2023-02-22T09:06:17;100629.38;;;14.26;71.20
57894;BME280;43710;47.460;19.034;2023-02-22T09:09:19;100630.50;;;14.25;68.92
57894;BME280;43710;47.460;19.034;2023-02-22T09:12:22;100622.00;;;14.32;71.43
57894;BME280;43710;47.460;19.034;2023-02-22T09:15:25;100630.09;;;14.32;76.29
57894;BME280;43710;47.460;19.034;2023-02-22T09:18:28;100630.00;;;14.37;70.14
57894;BME280;43710;47.460;19.034;2023-02-22T09:21:44;100632.91;;;14.41;75.43
57894;BME280;43710;47.460;19.034;2023-02-22T09:24:47;100630.28;;;14.22;67.04
57894;BME280;43710;47.460;19.034;2023-02-22T09:27:51;100626.81;;;14.21;65.93
57894;BME280;43710;47.460;19.034;2023-02-22T09:30:55;100636.78;;;14.21;69.89
57894;BME280;43710;47.460;19.034;2023-02-22T09:33:57;100626.78;;;14.07;71.26
57894;BME280;43710;47.460;19.034;2023-02-22T09:37:00;100629.38;;;14.13;70.43
57894;BME280;43710;47.460;19.034;2023-02-22T09:40:03;100630.19;;;14.13;68.09
57894;BME280;43710;47.460;19.034;2023-02-22T09:43:33;100632.97;;;14.08;69.41
57894;BME280;43710;47.460;19.034;2023-02-22T09:46:39;100622.31;;;13.84;64.55
57894;BME280;43710;47.460;19.034;2023-02-22T09:49:55;100627.31;;;13.77;65.11
57894;BME280;43710;47.460;19.034;2023-02-22T09:53:19;100627.81;;;13.79;70.69
57894;BME280;43710;47.460;19.034;2023-02-22T09:56:24;100626.72;;;13.80;70.28
57894;BME280;43710;47.460;19.034;2023-02-22T10:00:23;100622.50;;;13.74;65.60
57894;BME280;43710;47.460;19.034;2023-02-22T10:03:24;100625.56;;;13.67;72.28
57894;BME280;43710;47.460;19.034;2023-02-22T10:06:29;100625.84;;;13.52;67.29
57894;BME280;43710;47.460;19.034;2023-02-22T10:09:39;100630.25;;;13.61;79.05
57894;BME280;43710;47.460;19.034;2023-02-22T10:16:24;100619.87;;;13.55;70.84
57894;BME280;43710;47.460;19.034;2023-02-22T10:26:28;100617.69;;;13.71;65.33
57894;BME280;43710;47.460;19.034;2023-02-22T10:29:39;100610.72;;;13.70;68.95
57894;BME280;43710;47.460;19.034;2023-02-22T10:32:44;100614.72;;;13.72;65.86
57894;BME280;43710;47.460;19.034;2023-02-22T10:35:50;100608.16;;;13.78;70.96
57894;BME280;43710;47.460;19.034;2023-02-22T10:38:57;100607.25;;;13.83;69.65
57894;BME280;43710;47.460;19.034;2023-02-22T10:42:04;100611.56;;;13.51;63.43
57894;BME280;43710;47.460;19.034;2023-02-22T10:45:27;100606.69;;;13.53;64.91
57894;BME280;43710;47.460;19.034;2023-02-22T10:48:35;100607.06;;;13.47;63.41
57894;BME280;43710;47.460;19.034;2023-02-22T10:51:38;100603.88;;;13.45;66.93
57894;BME280;43710;47.460;19.034;2023-02-22T10:54:44;100604.78;;;13.54;77.54
57894;BME280;43710;47.460;19.034;2023-02-22T10:57:50;100600.19;;;13.87;72.17
57894;BME280;43710;47.460;19.034;2023-02-22T11:00:53;100596.87;;;13.90;78.92
57894;BME280;43710;47.460;19.034;2023-02-22T11:07:08;100596.13;;;13.57;64.85
57894;BME280;43710;47.460;19.034;2023-02-22T11:10:11;100590.19;;;13.41;64.61
57894;BME280;43710;47.460;19.034;2023-02-22T11:13:28;100581.66;;;13.34;66.04
57894;BME280;43710;47.460;19.034;2023-02-22T11:16:34;100569.88;;;13.49;76.60
57894;BME280;43710;47.460;19.034;2023-02-22T11:19:47;100578.66;;;13.54;65.61
57894;BME280;43710;47.460;19.034;2023-02-22T11:22:52;100580.06;;;13.52;65.74
57894;BME280;43710;47.460;19.034;2023-02-22T11:26:01;100571.00;;;13.61;65.64
57894;BME280;43710;47.460;19.034;2023-02-22T11:29:15;100573.13;;;13.78;67.96
57894;BME280;43710;47.460;19.034;2023-02-22T11:32:19;100570.66;;;13.96;72.98
57894;BME280;43710;47.460;19.034;2023-02-22T11:35:47;100569.97;;;14.04;67.64
57894;BME280;43710;47.460;19.034;2023-02-22T11:38:55;100571.84;;;13.90;64.84
57894;BME280;43710;47.460;19.034;2023-02-22T11:42:26;100573.44;;;13.91;64.45
57894;BME280;43710;47.460;19.034;2023-02-22T11:45:28;100565.97;;;14.01;66.92
57894;BME280;43710;47.460;19.034;2023-02-22T11:48:36;100566.78;;;14.02;70.40
57894;BME280;43710;47.460;19.034;2023-02-22T11:52:07;100566.78;;;14.02;69.11
57894;BME280;43710;47.460;19.034;2023-02-22T11:55:23;100558.97;;;14.00;65.55
57894;BME280;43710;47.460;19.034;2023-02-22T11:59:02;100568.97;;;14.00;77.44
57894;BME280;43710;47.460;19.034;2023-02-22T12:05:51;100560.78;;;14.19;65.49
57894;BME280;43710;47.460;19.034;2023-02-22T12:09:21;100562.28;;;14.25;67.60
57894;BME280;43710;47.460;19.034;2023-02-22T12:15:57;100551.91;;;14.18;68.71
57894;BME280;43710;47.460;19.034;2023-02-22T12:19:29;100545.09;;;14.07;64.08
57894;BME280;43710;47.460;19.034;2023-02-22T12:22:36;100550.88;;;14.00;65.05
57894;BME280;43710;47.460;19.034;2023-02-22T12:26:04;100546.59;;;13.99;75.55
57894;BME280;43710;47.460;19.034;2023-02-22T12:32:39;100551.66;;;13.87;65.17
57894;BME280;43710;47.460;19.034;2023-02-22T12:35:52;100544.91;;;13.90;67.95
57894;BME280;43710;47.460;19.034;2023-02-22T12:39:02;100537.41;;;13.86;66.20
57894;BME280;43710;47.460;19.034;2023-02-22T12:42:17;100539.31;;;13.86;64.97
57894;BME280;43710;47.460;19.034;2023-02-22T12:52:43;100522.22;;;13.77;66.11
57894;BME280;43710;47.460;19.034;2023-02-22T12:55:59;100521.63;;;13.80;66.84
57894;BME280;43710;47.460;19.034;2023-02-22T12:59:16;100520.94;;;13.74;65.04
57894;BME280;43710;47.460;19.034;2023-02-22T13:02:42;100517.44;;;13.74;66.04
57894;BME280;43710;47.460;19.034;2023-02-22T13:05:54;100514.44;;;13.75;67.00
57894;BME280;43710;47.460;19.034;2023-02-22T13:09:22;100514.84;;;13.69;64.80
57894;BME280;43710;47.460;19.034;2023-02-22T13:12:56;100509.66;;;13.72;64.68
57894;BME280;43710;47.460;19.034;2023-02-22T13:16:27;100516.16;;;13.71;68.63
57894;BME280;43710;47.460;19.034;2023-02-22T13:20:06;100511.66;;;13.80;80.73
57894;BME280;43710;47.460;19.034;2023-02-22T13:26:26;100504.31;;;13.53;64.71
57894;BME280;43710;47.460;19.034;2023-02-22T13:29:43;100506.84;;;13.63;65.87
57894;BME280;43710;47.460;19.034;2023-02-22T13:36:10;100509.84;;;13.76;66.10
57894;BME280;43710;47.460;19.034;2023-02-22T13:43:05;100509.78;;;13.81;65.10
57894;BME280;43710;47.460;19.034;2023-02-22T13:53:23;100518.34;;;13.97;71.63
57894;BME280;43710;47.460;19.034;2023-02-22T13:56:27;100507.75;;;13.86;66.15
57894;BME280;43710;47.460;19.034;2023-02-22T13:59:34;100513.16;;;13.86;71.84
57894;BME280;43710;47.460;19.034;2023-02-22T14:06:10;100508.37;;;13.97;82.56
57894;BME280;43710;47.460;19.034;2023-02-22T14:09:48;100503.59;;;13.94;68.63
57894;BME280;43710;47.460;19.034;2023-02-22T14:12:51;100508.97;;;13.94;67.49
57894;BME280;43710;47.460;19.034;2023-02-22T14:19:18;100510.84;;;13.80;71.02
57894;BME280;43710;47.460;19.034;2023-02-22T14:22:27;100506.69;;;13.88;67.42
57894;BME280;43710;47.460;19.034;2023-02-22T14:25:41;100501.97;;;13.93;73.25
57894;BME280;43710;47.460;19.034;2023-02-22T14:28:59;100502.16;;;13.97;75.75
57894;BME280;43710;47.460;19.034;2023-02-22T14:32:08;100502.09;;;14.02;69.62
57894;BME280;43710;47.460;19.034;2023-02-22T14:35:16;100506.78;;;13.96;67.48
57894;BME280;43710;47.460;19.034;2023-02-22T14:38:31;100506.78;;;13.96;70.44
57894;BME280;43710;47.460;19.034;2023-02-22T14:41:34;100501.37;;;13.96;81.10
57894;BME280;43710;47.460;19.034;2023-02-22T14:51:36;100496.59;;;13.93;68.65
57894;BME280;43710;47.460;19.034;2023-02-22T14:58:11;100495.59;;;14.03;73.50
57894;BME280;43710;47.460;19.034;2023-02-22T15:01:25;100493.00;;;13.98;67.66
57894;BME280;43710;47.460;19.034;2023-02-22T15:04:54;100493.22;;;13.88;67.54
57894;BME280;43710;47.460;19.034;2023-02-22T15:08:00;100496.59;;;13.79;67.93
57894;BME280;43710;47.460;19.034;2023-02-22T15:11:03;100486.00;;;13.83;69.03
57894;BME280;43710;47.460;19.034;2023-02-22T15:14:16;100485.72;;;13.84;67.74
57894;BME280;43710;47.460;19.034;2023-02-22T15:17:27;100485.41;;;13.86;76.34
57894;BME280;43710;47.460;19.034;2023-02-22T15:20:29;100490.00;;;13.85;70.09
57894;BME280;43710;47.460;19.034;2023-02-22T15:23:53;100481.59;;;13.87;69.15
57894;BME280;43710;47.460;19.034;2023-02-22T15:27:23;100481.59;;;13.87;72.60
57894;BME280;43710;47.460;19.034;2023-02-22T15:30:27;100482.81;;;13.81;75.75
57894;BME280;43710;47.460;19.034;2023-02-22T15:33:29;100475.03;;;13.79;73.29
57894;BME280;43710;47.460;19.034;2023-02-22T15:36:40;100481.13;;;13.85;75.43
57894;BME280;43710;47.460;19.034;2023-02-22T15:39:42;100483.63;;;13.81;69.93
57894;BME280;43710;47.460;19.034;2023-02-22T15:42:50;100487.72;;;13.79;69.37
57894;BME280;43710;47.460;19.034;2023-02-22T15:46:09;100477.84;;;13.74;72.97
57894;BME280;43710;47.460;19.034;2023-02-22T15:52:19;100480.09;;;13.67;68.36
57894;BME280;43710;47.460;19.034;2023-02-22T15:55:25;100477.84;;;13.74;70.93
57894;BME280;43710;47.460;19.034;2023-02-22T15:58:28;100482.00;;;13.67;69.98
57894;BME280;43710;47.460;19.034;2023-02-22T16:01:36;100475.22;;;13.69;68.15
57894;BME280;43710;47.460;19.034;2023-02-22T16:04:43;100478.22;;;13.68;67.74
57894;BME280;43710;47.460;19.034;2023-02-22T16:08:00;100482.91;;;13.62;69.78
57894;BME280;43710;47.460;19.034;2023-02-22T16:11:13;100480.87;;;13.54;68.27
57894;BME280;43710;47.460;19.034;2023-02-22T16:14:30;100481.00;;;13.49;69.21
57894;BME280;43710;47.460;19.034;2023-02-22T16:17:40;100480.00;;;13.58;67.51
57894;BME280;43710;47.460;19.034;2023-02-22T16:21:10;100481.72;;;13.68;66.57
57894;BME280;43710;47.460;19.034;2023-02-22T16:24:24;100490.38;;;13.51;68.68
57894;BME280;43710;47.460;19.034;2023-02-22T16:27:27;100493.16;;;13.46;67.98
57894;BME280;43710;47.460;19.034;2023-02-22T16:30:32;100492.16;;;13.42;68.43
57894;BME280;43710;47.460;19.034;2023-02-22T16:33:36;100496.22;;;13.39;68.01
57894;BME280;43710;47.460;19.034;2023-02-22T16:36:43;100497.41;;;13.33;67.98
57894;BME280;43710;47.460;19.034;2023-02-22T16:39:46;100498.66;;;13.22;71.13
